Terminal Aerodrome Forecast
Issued by NWS

Home | Current Version | Previous Version | Text Only | Print | Product List | Glossary On
Versions: 1 2 3 4 5 6 7 8 9 10 11 12 13
000
FTUS45 KLKN 180533
TAFELY
TAF
KELY 180533Z 1806/1906 18015G25KT P6SM FEW250
     FM181600 21025G35KT P6SM SCT100 BKN200
     FM190000 22020G30KT P6SM BKN100
     FM190300 33015G25KT P6SM SCT040 OVC070=

USA.gov is the U.S. government's official web portal to all federal, state and local government web resources and services.